Time;durP1;ratioP1;P1;durP2;ratioP2;P2;SDS_P1;SDS_P2;PMS_P1;PMS_P2;Temp;Humidity;BMP_temperature;BMP_pressure;BME280_temperature;BME280_humidity;BME280_pressure;Samples;Min_cycle;Max_cycle;Signal;HPM_P1;HPM_P2
2024/03/18 00:01:06;;;;;;;2.67;0.90;;;;;;;;;;4996255;28;20426;-81
2024/03/18 00:03:32;;;;;;;2.10;0.97;;;;;;;;;;4995288;28;20813;-82
2024/03/18 00:05:58;;;;;;;2.53;1.00;;;;;;;;;;4996431;28;20429;-80
2024/03/18 00:08:24;;;;;;;3.57;0.80;;;;;;;;;;4995044;28;20455;-79
2024/03/18 00:10:50;;;;;;;1.60;1.50;;;;;;;;;;4996227;28;20903;-80
2024/03/18 00:13:16;;;;;;;3.73;0.90;;;;;;;;;;4996048;28;20431;-79
2024/03/18 00:15:42;;;;;;;2.57;0.80;;;;;;;;;;4994790;28;20456;-79
2024/03/18 00:18:08;;;;;;;1.27;0.90;;;;;;;;;;4996585;28;20506;-79
2024/03/18 00:20:34;;;;;;;2.50;1.47;;;;;;;;;;4995230;28;20422;-79
2024/03/18 00:23:00;;;;;;;1.60;0.67;;;;;;;;;;4996239;28;20467;-79
2024/03/18 00:25:26;;;;;;;1.87;0.93;;;;;;;;;;4996333;28;20426;-79
2024/03/18 00:27:52;;;;;;;1.87;1.13;;;;;;;;;;4994925;28;20415;-80
2024/03/18 00:30:18;;;;;;;1.93;0.63;;;;;;;;;;4994656;28;20477;-80
2024/03/18 00:32:44;;;;;;;3.47;1.33;;;;;;;;;;4996686;28;20478;-81
2024/03/18 00:35:10;;;;;;;2.67;1.57;;;;;;;;;;5005937;28;20411;-80
2024/03/18 00:37:39;;;;;;;2.70;0.80;;;;;;;;;;5011561;28;20834;-81
2024/03/18 00:40:05;;;;;;;1.50;0.53;;;;;;;;;;5012864;28;20470;-80
2024/03/18 00:42:31;;;;;;;1.20;0.57;;;;;;;;;;5014790;28;20417;-80
2024/03/18 00:44:57;;;;;;;2.70;1.40;;;;;;;;;;5013959;28;20513;-79
2024/03/18 00:47:23;;;;;;;1.60;0.90;;;;;;;;;;5015097;28;20496;-78
2024/03/18 00:49:49;;;;;;;2.53;0.83;;;;;;;;;;5014905;28;20910;-81
2024/03/18 00:52:16;;;;;;;2.33;1.03;;;;;;;;;;5014736;28;20811;-80
2024/03/18 00:54:41;;;;;;;1.43;0.97;;;;;;;;;;5014360;28;20470;-80
2024/03/18 00:57:07;;;;;;;1.57;1.40;;;;;;;;;;5013562;28;20455;-80
2024/03/18 00:59:34;;;;;;;2.30;1.60;;;;;;;;;;5014225;28;20453;-80
2024/03/18 01:02:00;;;;;;;1.77;0.90;;;;;;;;;;5014853;28;20422;-80
2024/03/18 01:04:26;;;;;;;2.73;1.27;;;;;;;;;;5014731;28;20413;-79
2024/03/18 01:06:52;;;;;;;4.90;1.40;;;;;;;;;;5014579;28;20416;-80
2024/03/18 01:09:18;;;;;;;2.00;1.20;;;;;;;;;;5014506;28;20792;-80
2024/03/18 01:11:45;;;;;;;1.30;0.93;;;;;;;;;;5014573;28;20469;-80
2024/03/18 01:14:11;;;;;;;2.30;0.90;;;;;;;;;;5012929;28;20422;-80
2024/03/18 01:16:37;;;;;;;3.57;1.43;;;;;;;;;;5014453;28;20436;-81
2024/03/18 01:19:03;;;;;;;2.13;0.83;;;;;;;;;;5014295;28;20415;-82
2024/03/18 01:21:29;;;;;;;1.37;1.00;;;;;;;;;;5012867;28;20457;-80
2024/03/18 01:23:54;;;;;;;1.50;1.40;;;;;;;;;;5014382;28;20873;-80
2024/03/18 01:26:20;;;;;;;2.53;1.23;;;;;;;;;;5013018;28;20456;-81
2024/03/18 01:28:46;;;;;;;1.37;0.73;;;;;;;;;;5012638;28;20911;-81
2024/03/18 01:31:12;;;;;;;1.77;0.70;;;;;;;;;;5014052;28;20469;-81
2024/03/18 01:33:38;;;;;;;2.00;1.00;;;;;;;;;;5014056;28;20428;-81
2024/03/18 01:36:04;;;;;;;3.67;0.87;;;;;;;;;;5013950;28;20430;-81
2024/03/18 01:38:30;;;;;;;5.20;0.83;;;;;;;;;;5014078;28;20437;-81
2024/03/18 01:40:57;;;;;;;2.50;1.17;;;;;;;;;;5013947;28;20406;-81
2024/03/18 01:43:23;;;;;;;1.00;0.57;;;;;;;;;;5013585;28;20816;-81
2024/03/18 01:45:49;;;;;;;2.23;1.30;;;;;;;;;;5013979;28;20762;-81
2024/03/18 01:48:16;;;;;;;1.60;0.90;;;;;;;;;;5013906;28;20505;-80
2024/03/18 01:50:42;;;;;;;1.73;0.90;;;;;;;;;;5013917;28;20462;-81
2024/03/18 01:53:10;;;;;;;1.30;0.53;;;;;;;;;;5012255;28;20535;-80
2024/03/18 01:55:36;;;;;;;1.57;1.30;;;;;;;;;;5013793;28;20412;-80
2024/03/18 01:58:02;;;;;;;3.43;1.37;;;;;;;;;;5012380;28;20425;-82
2024/03/18 02:00:37;;;;;;;1.80;1.00;;;;;;;;;;5013184;28;20425;-80
2024/03/18 02:03:04;;;;;;;3.77;1.10;;;;;;;;;;5013509;28;20402;-81
2024/03/18 02:05:31;;;;;;;1.70;1.33;;;;;;;;;;5013655;28;20418;-80
2024/03/18 02:07:57;;;;;;;1.17;0.67;;;;;;;;;;5013504;28;20417;-80
2024/03/18 02:10:23;;;;;;;1.50;0.97;;;;;;;;;;5012266;28;20417;-81
2024/03/18 02:12:49;;;;;;;1.70;0.90;;;;;;;;;;5011708;28;20482;-81
2024/03/18 02:15:14;;;;;;;2.03;1.10;;;;;;;;;;5013295;28;20418;-80
2024/03/18 02:17:40;;;;;;;0.70;0.53;;;;;;;;;;5013365;28;20410;-80
2024/03/18 02:20:08;;;;;;;0.70;0.70;;;;;;;;;;5012773;28;20427;-81
2024/03/18 02:22:34;;;;;;;1.03;0.80;;;;;;;;;;5012597;28;20510;-80
2024/03/18 02:25:00;;;;;;;3.13;1.13;;;;;;;;;;5013187;28;20771;-80
2024/03/18 02:27:31;;;;;;;2.20;0.87;;;;;;;;;;5013164;28;20468;-79
2024/03/18 02:29:58;;;;;;;1.33;0.93;;;;;;;;;;5012884;28;20394;-80
2024/03/18 02:32:24;;;;;;;1.97;0.93;;;;;;;;;;5013108;28;20615;-80
2024/03/18 02:34:50;;;;;;;1.03;0.60;;;;;;;;;;5013217;28;20445;-80
2024/03/18 02:37:16;;;;;;;0.93;0.80;;;;;;;;;;5013129;28;20433;-81
2024/03/18 02:39:42;;;;;;;2.03;0.97;;;;;;;;;;5012961;28;20406;-80
2024/03/18 02:42:08;;;;;;;1.30;1.07;;;;;;;;;;5013044;28;20932;-80
2024/03/18 02:44:34;;;;;;;3.57;1.17;;;;;;;;;;5011528;28;20415;-80
2024/03/18 02:47:00;;;;;;;1.00;0.70;;;;;;;;;;5012727;28;20552;-80
2024/03/18 02:49:26;;;;;;;0.80;0.53;;;;;;;;;;5013065;28;20406;-79
2024/03/18 02:51:52;;;;;;;1.80;0.90;;;;;;;;;;5012847;28;20811;-81
2024/03/18 02:54:18;;;;;;;2.53;1.00;;;;;;;;;;5012772;28;20479;-79
2024/03/18 02:56:44;;;;;;;1.40;1.07;;;;;;;;;;5012847;28;20402;-80
2024/03/18 02:59:10;;;;;;;0.93;0.63;;;;;;;;;;5012399;28;20410;-80
2024/03/18 03:01:36;;;;;;;3.27;1.33;;;;;;;;;;5012729;28;20971;-80
2024/03/18 03:04:03;;;;;;;3.07;1.40;;;;;;;;;;5012491;28;20424;-80
2024/03/18 03:06:29;;;;;;;1.80;1.10;;;;;;;;;;5012677;28;20805;-81
2024/03/18 03:08:57;;;;;;;1.33;1.20;;;;;;;;;;5014317;28;20407;-80
2024/03/18 03:11:23;;;;;;;1.00;0.80;;;;;;;;;;5016562;28;20432;-81
2024/03/18 03:13:48;;;;;;;2.37;1.70;;;;;;;;;;5016435;28;20777;-79
2024/03/18 03:16:15;;;;;;;0.70;0.70;;;;;;;;;;5016758;28;20413;-80
2024/03/18 03:18:41;;;;;;;1.70;0.90;;;;;;;;;;5016697;28;20406;-81
2024/03/18 03:21:09;;;;;;;4.57;1.10;;;;;;;;;;5016456;28;20413;-81
2024/03/18 03:23:38;;;;;;;1.63;1.10;;;;;;;;;;5016392;28;20471;-80
2024/03/18 03:26:04;;;;;;;1.70;1.23;;;;;;;;;;5016586;28;20406;-80
2024/03/18 03:28:30;;;;;;;0.93;0.60;;;;;;;;;;5016081;28;20413;-81
2024/03/18 03:31:08;;;;;;;1.17;0.60;;;;;;;;;;5016509;28;20837;-79
2024/03/18 03:33:34;;;;;;;2.53;0.97;;;;;;;;;;5016361;28;20414;-81
2024/03/18 03:36:00;;;;;;;2.10;1.13;;;;;;;;;;5015086;28;20972;-81
2024/03/18 03:38:26;;;;;;;2.40;2.20;;;;;;;;;;5016351;28;20509;-81
2024/03/18 03:40:52;;;;;;;2.00;1.17;;;;;;;;;;5016274;28;20429;-80
2024/03/18 03:43:19;;;;;;;1.00;0.60;;;;;;;;;;5015822;28;20518;-80
2024/03/18 03:45:49;;;;;;;3.00;0.83;;;;;;;;;;5015915;28;20768;-80
2024/03/18 03:48:15;;;;;;;3.23;1.63;;;;;;;;;;5016316;28;20423;-81
2024/03/18 03:50:41;;;;;;;1.67;0.70;;;;;;;;;;5016150;28;20842;-81
2024/03/18 03:53:07;;;;;;;2.40;1.43;;;;;;;;;;5016065;28;20425;-82
2024/03/18 03:55:37;;;;;;;2.03;1.50;;;;;;;;;;5016077;28;20535;-81
2024/03/18 03:58:04;;;;;;;2.00;0.90;;;;;;;;;;5015589;28;20416;-81
2024/03/18 04:00:31;;;;;;;3.10;1.40;;;;;;;;;;5015996;28;20552;-79
2024/03/18 04:02:57;;;;;;;1.73;1.30;;;;;;;;;;5015838;28;20557;-80
2024/03/18 04:05:23;;;;;;;1.57;0.97;;;;;;;;;;5015773;28;20887;-80
2024/03/18 04:07:49;;;;;;;3.60;1.17;;;;;;;;;;5015802;28;20906;-81
2024/03/18 04:10:15;;;;;;;2.47;1.73;;;;;;;;;;5015696;28;20421;-80
2024/03/18 04:12:41;;;;;;;2.97;1.17;;;;;;;;;;5015359;28;20497;-80
2024/03/18 04:15:07;;;;;;;2.77;1.60;;;;;;;;;;5015294;28;20919;-80
2024/03/18 04:17:34;;;;;;;2.83;1.60;;;;;;;;;;5015623;28;20411;-81
2024/03/18 04:20:00;;;;;;;2.50;1.60;;;;;;;;;;5014606;28;20422;-81
2024/03/18 04:22:26;;;;;;;1.97;1.43;;;;;;;;;;5015232;28;20809;-81
2024/03/18 04:24:52;;;;;;;2.10;1.63;;;;;;;;;;5015423;28;20410;-80
2024/03/18 04:27:18;;;;;;;3.60;2.37;;;;;;;;;;5015455;28;20469;-81
2024/03/18 04:29:45;;;;;;;2.33;1.27;;;;;;;;;;5015193;28;20439;-81
2024/03/18 04:32:10;;;;;;;3.13;1.00;;;;;;;;;;5015350;28;20464;-81
2024/03/18 04:34:36;;;;;;;2.60;1.57;;;;;;;;;;5015344;28;20410;-81
2024/03/18 04:37:02;;;;;;;1.67;1.30;;;;;;;;;;5015132;28;20424;-81
2024/03/18 04:39:28;;;;;;;3.17;1.53;;;;;;;;;;5013887;28;20406;-81
2024/03/18 04:41:55;;;;;;;3.80;1.33;;;;;;;;;;5013712;28;20478;-81
2024/03/18 04:44:21;;;;;;;3.03;1.93;;;;;;;;;;5014918;28;20426;-81
2024/03/18 04:46:47;;;;;;;4.40;1.43;;;;;;;;;;5015187;28;20966;-80
2024/03/18 04:49:13;;;;;;;1.53;1.27;;;;;;;;;;5013375;28;20473;-79
2024/03/18 04:51:39;;;;;;;2.77;1.60;;;;;;;;;;5014895;28;20577;-80
2024/03/18 04:54:05;;;;;;;2.00;1.80;;;;;;;;;;5014652;28;20431;-79
2024/03/18 04:56:31;;;;;;;3.40;2.07;;;;;;;;;;5013667;28;20769;-79
2024/03/18 04:58:59;;;;;;;3.50;2.27;;;;;;;;;;5013136;28;20430;-79
2024/03/18 05:01:25;;;;;;;3.83;1.90;;;;;;;;;;5014710;28;20576;-80
2024/03/18 05:03:51;;;;;;;1.80;1.17;;;;;;;;;;5014766;28;20497;-80
2024/03/18 05:06:17;;;;;;;2.97;1.77;;;;;;;;;;5014641;28;20844;-80
2024/03/18 05:08:43;;;;;;;2.93;2.03;;;;;;;;;;5013403;28;20463;-80
2024/03/18 05:11:09;;;;;;;3.27;2.83;;;;;;;;;;5014479;28;20427;-79
2024/03/18 05:13:35;;;;;;;2.20;1.50;;;;;;;;;;5013666;28;20450;-80
2024/03/18 05:16:01;;;;;;;2.57;1.67;;;;;;;;;;5014587;28;20418;-79
2024/03/18 05:18:27;;;;;;;5.23;1.77;;;;;;;;;;5013139;28;20473;-79
2024/03/18 05:20:53;;;;;;;3.10;1.83;;;;;;;;;;5014316;28;20421;-80
2024/03/18 05:23:19;;;;;;;2.70;1.97;;;;;;;;;;5013951;28;20517;-80
2024/03/18 05:25:50;;;;;;;3.80;1.90;;;;;;;;;;5014481;28;20407;-80
2024/03/18 05:28:16;;;;;;;1.93;1.03;;;;;;;;;;5013919;28;20427;-80
2024/03/18 05:30:42;;;;;;;3.03;1.23;;;;;;;;;;5014212;28;20410;-81
2024/03/18 05:33:07;;;;;;;3.67;1.50;;;;;;;;;;5012509;28;20949;-80
2024/03/18 05:35:33;;;;;;;3.00;2.23;;;;;;;;;;5014084;28;20908;-80
2024/03/18 05:37:59;;;;;;;2.30;1.83;;;;;;;;;;5014168;28;20983;-80
2024/03/18 05:40:25;;;;;;;4.53;1.73;;;;;;;;;;5014125;28;20454;-81
2024/03/18 05:42:51;;;;;;;4.00;2.07;;;;;;;;;;5012300;28;20485;-81
2024/03/18 05:45:17;;;;;;;3.20;1.60;;;;;;;;;;5013936;28;20926;-80
2024/03/18 05:47:43;;;;;;;3.30;1.63;;;;;;;;;;5013884;28;20419;-80
2024/03/18 05:50:09;;;;;;;4.27;2.47;;;;;;;;;;5012622;28;20448;-81
2024/03/18 05:52:35;;;;;;;2.80;1.63;;;;;;;;;;5013887;28;20410;-81
2024/03/18 05:55:01;;;;;;;3.93;1.70;;;;;;;;;;5013881;28;20737;-81
2024/03/18 05:57:27;;;;;;;2.53;1.90;;;;;;;;;;5013448;28;20468;-81
2024/03/18 05:59:53;;;;;;;3.90;2.20;;;;;;;;;;5013800;28;20406;-81
2024/03/18 06:02:19;;;;;;;1.90;1.50;;;;;;;;;;5012056;28;20481;-81
2024/03/18 06:04:44;;;;;;;3.30;1.50;;;;;;;;;;5013659;28;20407;-81
2024/03/18 06:07:11;;;;;;;3.23;1.00;;;;;;;;;;5013668;28;20982;-81
2024/03/18 06:09:37;;;;;;;3.40;2.13;;;;;;;;;;5012274;28;20458;-82
2024/03/18 06:12:03;;;;;;;2.87;2.10;;;;;;;;;;5013369;28;20454;-81
2024/03/18 06:14:29;;;;;;;4.00;2.50;;;;;;;;;;5013607;28;20414;-80
2024/03/18 06:16:55;;;;;;;3.53;2.40;;;;;;;;;;5013445;28;20445;-81
2024/03/18 06:19:21;;;;;;;3.43;2.80;;;;;;;;;;5012112;28;20933;-81
2024/03/18 06:21:48;;;;;;;6.03;2.97;;;;;;;;;;5012984;28;20486;-81
2024/03/18 06:24:19;;;;;;;7.93;2.63;;;;;;;;;;5013215;28;20506;-80
2024/03/18 06:26:45;;;;;;;2.63;1.60;;;;;;;;;;5013437;28;20453;-80
2024/03/18 06:29:12;;;;;;;2.80;2.20;;;;;;;;;;5012787;28;20916;-82
2024/03/18 06:31:38;;;;;;;6.40;4.43;;;;;;;;;;5013233;28;20485;-80
2024/03/18 06:34:05;;;;;;;3.43;1.83;;;;;;;;;;5011944;28;20432;-80
2024/03/18 06:36:32;;;;;;;5.53;2.70;;;;;;;;;;5013227;28;20420;-81
2024/03/18 06:38:57;;;;;;;4.90;2.73;;;;;;;;;;5012674;28;20535;-80
2024/03/18 06:41:23;;;;;;;3.83;2.83;;;;;;;;;;5012782;28;20608;-81
2024/03/18 06:43:49;;;;;;;5.47;2.17;;;;;;;;;;5012008;28;20770;-81
2024/03/18 06:46:15;;;;;;;4.83;2.53;;;;;;;;;;5012957;28;21021;-79
2024/03/18 06:48:41;;;;;;;6.73;1.97;;;;;;;;;;5012996;28;20484;-80
2024/03/18 06:51:14;;;;;;;4.43;2.33;;;;;;;;;;5012591;28;20407;-79
2024/03/18 06:53:40;;;;;;;5.50;3.43;;;;;;;;;;5009956;28;20424;-82
2024/03/18 06:56:07;;;;;;;4.93;2.63;;;;;;;;;;4991883;28;20414;-80
2024/03/18 06:58:34;;;;;;;3.47;1.80;;;;;;;;;;4991559;28;20523;-79
2024/03/18 07:00:59;;;;;;;6.37;3.07;;;;;;;;;;4993041;28;20486;-81
2024/03/18 07:03:25;;;;;;;3.97;2.67;;;;;;;;;;4991503;28;20486;-81
2024/03/18 07:05:51;;;;;;;3.40;1.83;;;;;;;;;;4991862;28;20430;-81
2024/03/18 07:08:17;;;;;;;4.30;2.10;;;;;;;;;;4992968;28;20423;-81
2024/03/18 07:10:43;;;;;;;2.40;1.67;;;;;;;;;;4992927;28;20442;-81
2024/03/18 07:13:09;;;;;;;5.83;2.40;;;;;;;;;;4992581;28;20411;-80
2024/03/18 07:15:35;;;;;;;4.33;2.27;;;;;;;;;;4993034;28;20445;-79
2024/03/18 07:18:01;;;;;;;4.00;2.33;;;;;;;;;;4992884;28;20411;-81
2024/03/18 07:20:27;;;;;;;2.23;2.03;;;;;;;;;;4993018;28;20394;-81
2024/03/18 07:22:56;;;;;;;4.80;2.23;;;;;;;;;;4992849;28;20482;-80
2024/03/18 07:25:22;;;;;;;3.83;1.77;;;;;;;;;;4992879;28;20418;-80
2024/03/18 07:27:48;;;;;;;5.97;3.30;;;;;;;;;;4991280;28;20911;-80
2024/03/18 07:30:17;;;;;;;3.70;1.90;;;;;;;;;;4993031;28;20415;-79
2024/03/18 07:32:44;;;;;;;3.83;2.20;;;;;;;;;;4992873;28;20514;-82
2024/03/18 07:35:14;;;;;;;7.10;3.17;;;;;;;;;;4992816;28;20410;-81
2024/03/18 07:37:40;;;;;;;5.03;2.93;;;;;;;;;;4992816;28;20498;-82
2024/03/18 07:40:09;;;;;;;6.70;2.53;;;;;;;;;;4992851;28;20859;-79
2024/03/18 07:42:35;;;;;;;6.17;2.73;;;;;;;;;;4991182;28;20478;-81
2024/03/18 07:45:01;;;;;;;8.20;2.13;;;;;;;;;;4992742;28;20738;-82
2024/03/18 07:47:27;;;;;;;3.23;1.93;;;;;;;;;;4992675;28;20499;-81
2024/03/18 07:49:53;;;;;;;3.10;1.90;;;;;;;;;;4992521;28;20407;-80
2024/03/18 07:52:19;;;;;;;4.10;2.40;;;;;;;;;;4992572;28;20418;-81
2024/03/18 07:54:46;;;;;;;4.80;3.30;;;;;;;;;;4993809;28;20422;-81
2024/03/18 07:57:13;;;;;;;5.63;3.10;;;;;;;;;;4995699;28;20412;-81
2024/03/18 07:59:39;;;;;;;3.83;2.77;;;;;;;;;;4995598;28;20431;-82
2024/03/18 08:02:05;;;;;;;5.27;3.03;;;;;;;;;;4996066;28;20873;-82
2024/03/18 08:04:31;;;;;;;4.67;2.37;;;;;;;;;;4996142;28;20411;-83
2024/03/18 08:06:57;;;;;;;2.57;1.63;;;;;;;;;;4996268;28;20446;-83
2024/03/18 08:09:23;;;;;;;3.50;2.40;;;;;;;;;;4996923;28;20434;-83
2024/03/18 08:11:50;;;;;;;3.83;1.93;;;;;;;;;;4996495;28;20414;-83
2024/03/18 08:14:17;;;;;;;5.27;3.00;;;;;;;;;;4995521;28;20514;-82
2024/03/18 08:16:44;;;;;;;5.93;2.43;;;;;;;;;;4996718;28;20417;-84
2024/03/18 08:19:10;;;;;;;6.50;2.70;;;;;;;;;;4997151;28;20407;-82
2024/03/18 08:21:39;;;;;;;4.03;2.70;;;;;;;;;;4996371;28;20465;-83
2024/03/18 08:24:05;;;;;;;5.93;3.50;;;;;;;;;;4996212;28;20493;-83
2024/03/18 08:26:34;;;;;;;4.50;2.70;;;;;;;;;;4997695;28;20800;-86
2024/03/18 08:29:02;;;;;;;5.57;3.83;;;;;;;;;;4997253;28;20432;-84
2024/03/18 08:31:31;;;;;;;5.40;3.17;;;;;;;;;;4997103;28;20421;-83
2024/03/18 08:34:00;;;;;;;4.97;2.50;;;;;;;;;;4997708;28;20425;-86
2024/03/18 08:36:26;;;;;;;3.20;1.53;;;;;;;;;;4998900;28;20427;-84
2024/03/18 08:38:54;;;;;;;4.90;2.47;;;;;;;;;;4997454;28;20434;-84
2024/03/18 08:41:20;;;;;;;5.50;3.27;;;;;;;;;;4997064;28;20470;-81
2024/03/18 08:43:46;;;;;;;6.87;2.90;;;;;;;;;;4996479;28;20811;-81
2024/03/18 08:46:13;;;;;;;4.37;2.50;;;;;;;;;;4996591;28;20417;-81
2024/03/18 08:48:39;;;;;;;4.87;2.57;;;;;;;;;;4997047;28;20516;-84
2024/03/18 08:51:05;;;;;;;5.13;2.90;;;;;;;;;;4996210;28;20412;-83
2024/03/18 08:53:31;;;;;;;3.80;2.10;;;;;;;;;;4995820;28;20422;-87
2024/03/18 08:55:57;;;;;;;5.47;2.93;;;;;;;;;;4995297;28;20434;-84
2024/03/18 08:58:23;;;;;;;5.40;2.60;;;;;;;;;;4994936;28;20425;-84
2024/03/18 09:00:56;;;;;;;4.70;2.50;;;;;;;;;;4995295;28;20422;-85
2024/03/18 09:03:22;;;;;;;3.20;2.00;;;;;;;;;;4994146;28;20480;-84
2024/03/18 09:05:55;;;;;;;6.10;2.83;;;;;;;;;;4995074;28;20412;-83
2024/03/18 09:08:22;;;;;;;5.13;3.10;;;;;;;;;;4994931;28;20517;-83
2024/03/18 09:10:50;;;;;;;5.67;2.70;;;;;;;;;;4995226;28;20767;-84
2024/03/18 09:13:16;;;;;;;4.63;1.70;;;;;;;;;;4994757;28;20424;-84
2024/03/18 09:15:43;;;;;;;6.67;3.23;;;;;;;;;;4994597;28;20830;-80
2024/03/18 09:18:09;;;;;;;6.23;2.60;;;;;;;;;;4993578;28;20813;-83
2024/03/18 09:20:35;;;;;;;6.10;2.50;;;;;;;;;;4994876;28;20423;-80
2024/03/18 09:23:02;;;;;;;6.93;3.03;;;;;;;;;;4994631;28;20562;-84
2024/03/18 09:25:28;;;;;;;6.20;2.97;;;;;;;;;;4994967;28;20443;-82
2024/03/18 09:27:54;;;;;;;4.37;2.47;;;;;;;;;;4994427;28;20428;-82
2024/03/18 09:30:21;;;;;;;5.57;2.60;;;;;;;;;;4994691;28;20920;-83
2024/03/18 09:32:47;;;;;;;4.77;3.40;;;;;;;;;;4994566;28;20425;-83
2024/03/18 09:35:13;;;;;;;4.40;2.73;;;;;;;;;;4994781;28;20475;-82
2024/03/18 09:37:39;;;;;;;4.37;2.43;;;;;;;;;;4994546;28;20420;-82
2024/03/18 09:40:05;;;;;;;5.03;2.73;;;;;;;;;;4994483;28;20462;-82
2024/03/18 09:42:31;;;;;;;3.63;2.17;;;;;;;;;;4994155;28;20472;-82
2024/03/18 09:44:59;;;;;;;6.83;3.20;;;;;;;;;;5004427;28;21057;-82
2024/03/18 09:47:25;;;;;;;4.70;2.50;;;;;;;;;;5012937;28;20424;-82
2024/03/18 09:49:52;;;;;;;4.83;3.90;;;;;;;;;;5009062;28;20426;-82
2024/03/18 09:52:18;;;;;;;4.73;2.80;;;;;;;;;;5014042;28;20424;-82
2024/03/18 09:54:51;;;;;;;4.67;2.23;;;;;;;;;;5013673;28;20408;-81
2024/03/18 09:57:18;;;;;;;3.17;2.00;;;;;;;;;;5010367;28;20431;-83
2024/03/18 09:59:47;;;;;;;6.47;2.53;;;;;;;;;;5007325;28;20431;-81
2024/03/18 10:02:15;;;;;;;6.03;3.70;;;;;;;;;;5013617;28;20806;-80
2024/03/18 10:04:41;;;;;;;6.50;3.23;;;;;;;;;;5013627;28;20418;-82
2024/03/18 10:07:12;;;;;;;6.63;2.80;;;;;;;;;;5012380;28;20522;-81
2024/03/18 10:09:38;;;;;;;4.70;3.27;;;;;;;;;;5012510;28;20431;-81
2024/03/18 10:12:04;;;;;;;9.13;2.50;;;;;;;;;;5012108;28;20417;-81
2024/03/18 10:14:30;;;;;;;6.23;3.07;;;;;;;;;;5012538;28;20422;-84
2024/03/18 10:16:59;;;;;;;5.47;2.53;;;;;;;;;;5000845;28;20473;-85
2024/03/18 10:19:25;;;;;;;4.47;1.93;;;;;;;;;;4994367;28;20781;-82
2024/03/18 10:22:20;;;;;;;3.27;2.97;;;;;;;;;;5013445;28;20889;-85
2024/03/18 10:24:46;;;;;;;6.33;2.83;;;;;;;;;;5009112;28;20464;-86
2024/03/18 10:27:13;;;;;;;5.67;2.93;;;;;;;;;;5011676;28;20491;-85
2024/03/18 10:29:40;;;;;;;5.03;2.97;;;;;;;;;;5013914;28;20427;-85
2024/03/18 10:32:32;;;;;;;4.80;3.20;;;;;;;;;;5013102;28;20434;-83
2024/03/18 10:35:02;;;;;;;3.03;1.70;;;;;;;;;;5012228;28;20467;-82
2024/03/18 10:37:28;;;;;;;4.63;2.67;;;;;;;;;;5012996;28;20431;-83
2024/03/18 10:40:11;;;;;;;5.50;2.30;;;;;;;;;;5012461;28;20461;-82
2024/03/18 10:42:40;;;;;;;3.53;1.80;;;;;;;;;;5012176;28;20476;-83
2024/03/18 10:45:11;;;;;;;8.40;2.57;;;;;;;;;;5013789;28;20528;-84
2024/03/18 10:47:37;;;;;;;3.90;1.70;;;;;;;;;;5013846;28;20427;-85
2024/03/18 10:50:04;;;;;;;4.77;2.63;;;;;;;;;;5013770;28;20492;-83
2024/03/18 10:52:31;;;;;;;2.97;1.90;;;;;;;;;;5013929;28;20423;-83
2024/03/18 10:54:57;;;;;;;4.80;2.57;;;;;;;;;;5013750;28;20413;-84
2024/03/18 10:57:25;;;;;;;3.60;1.53;;;;;;;;;;5012057;28;20413;-83
2024/03/18 10:59:52;;;;;;;3.90;2.10;;;;;;;;;;5013357;28;20409;-84
2024/03/18 11:02:26;;;;;;;3.70;1.73;;;;;;;;;;5011888;28;20816;-83
2024/03/18 11:04:55;;;;;;;9.73;3.33;;;;;;;;;;5013279;28;20455;-83
2024/03/18 11:07:28;;;;;;;3.93;2.23;;;;;;;;;;5013118;28;20409;-81
2024/03/18 11:10:01;;;;;;;5.37;2.90;;;;;;;;;;5013349;28;20424;-82
2024/03/18 11:12:32;;;;;;;4.13;2.20;;;;;;;;;;5012837;28;20905;-83
2024/03/18 11:15:05;;;;;;;4.03;1.90;;;;;;;;;;5013156;28;20461;-81
2024/03/18 11:17:31;;;;;;;4.30;2.60;;;;;;;;;;5013133;28;20409;-81
2024/03/18 11:20:01;;;;;;;5.10;1.93;;;;;;;;;;5013387;28;20425;-83
2024/03/18 11:22:27;;;;;;;6.90;2.40;;;;;;;;;;5013266;28;20495;-83
2024/03/18 11:24:54;;;;;;;5.30;2.70;;;;;;;;;;5012329;28;20493;-83
2024/03/18 11:27:20;;;;;;;6.47;2.33;;;;;;;;;;5012991;28;20762;-84
2024/03/18 11:29:50;;;;;;;5.13;2.70;;;;;;;;;;5013469;28;20419;-82
2024/03/18 11:32:16;;;;;;;6.90;2.97;;;;;;;;;;5017352;28;20507;-82
2024/03/18 11:34:42;;;;;;;4.93;2.63;;;;;;;;;;5016059;28;20418;-82
2024/03/18 11:37:15;;;;;;;6.67;1.80;;;;;;;;;;5017746;28;20418;-82
2024/03/18 11:39:41;;;;;;;4.37;2.07;;;;;;;;;;5017219;28;20787;-85
2024/03/18 11:42:07;;;;;;;3.87;2.10;;;;;;;;;;5017063;28;20466;-82
2024/03/18 11:44:33;;;;;;;3.13;1.30;;;;;;;;;;5015751;28;20805;-83
2024/03/18 11:47:02;;;;;;;4.00;2.50;;;;;;;;;;5017079;28;20411;-85
2024/03/18 11:49:29;;;;;;;3.20;1.93;;;;;;;;;;5017087;28;21037;-85
2024/03/18 11:51:55;;;;;;;5.80;2.00;;;;;;;;;;5017027;28;20515;-84
2024/03/18 11:54:21;;;;;;;3.57;2.40;;;;;;;;;;5016614;28;20420;-84
2024/03/18 11:56:47;;;;;;;3.63;1.33;;;;;;;;;;5016198;28;20766;-84
2024/03/18 11:59:18;;;;;;;3.37;1.60;;;;;;;;;;5015181;28;20427;-82
2024/03/18 12:01:45;;;;;;;4.00;2.07;;;;;;;;;;5016396;28;20204;-83
2024/03/18 12:04:17;;;;;;;3.50;2.13;;;;;;;;;;5016411;28;20947;-85
2024/03/18 12:06:45;;;;;;;3.10;1.77;;;;;;;;;;5016379;28;20874;-85
2024/03/18 12:09:11;;;;;;;4.50;2.27;;;;;;;;;;5016251;28;20819;-83
2024/03/18 12:11:38;;;;;;;2.70;1.23;;;;;;;;;;5015969;28;20449;-83
2024/03/18 12:14:04;;;;;;;3.43;2.00;;;;;;;;;;5016555;28;20416;-82
2024/03/18 12:16:32;;;;;;;4.60;1.77;;;;;;;;;;5016534;28;20410;-83
2024/03/18 12:19:04;;;;;;;4.50;1.70;;;;;;;;;;5016087;28;20500;-83
2024/03/18 12:21:37;;;;;;;2.90;1.47;;;;;;;;;;5016134;28;20425;-83
2024/03/18 12:29:38;;;;;;;3.57;1.90;;;;;;;;;;5015965;28;20412;-82
2024/03/18 12:32:05;;;;;;;3.70;1.67;;;;;;;;;;5015891;28;20769;-83
2024/03/18 12:34:32;;;;;;;3.70;1.30;;;;;;;;;;5015891;28;20470;-83
2024/03/18 12:37:01;;;;;;;2.80;2.17;;;;;;;;;;5014614;28;20783;-81
2024/03/18 12:39:30;;;;;;;2.83;1.77;;;;;;;;;;5015803;28;20781;-81
2024/03/18 12:42:03;;;;;;;3.57;2.40;;;;;;;;;;5014346;28;20471;-82
2024/03/18 12:44:29;;;;;;;3.23;1.40;;;;;;;;;;5015798;28;20504;-80
2024/03/18 12:46:55;;;;;;;2.90;1.17;;;;;;;;;;5015657;28;20424;-78
2024/03/18 12:49:21;;;;;;;3.33;2.00;;;;;;;;;;5015583;28;20426;-80
2024/03/18 12:51:47;;;;;;;3.33;2.10;;;;;;;;;;5015482;28;20924;-79
2024/03/18 12:54:13;;;;;;;4.90;2.10;;;;;;;;;;5015457;28;20431;-80
2024/03/18 12:56:39;;;;;;;3.30;1.80;;;;;;;;;;5015123;28;20431;-80
2024/03/18 12:59:05;;;;;;;4.17;1.80;;;;;;;;;;5014146;28;20416;-83
2024/03/18 13:01:31;;;;;;;4.00;2.57;;;;;;;;;;5015296;28;20196;-80
2024/03/18 13:03:57;;;;;;;2.80;1.50;;;;;;;;;;5015408;28;20456;-86
2024/03/18 13:06:23;;;;;;;3.37;2.07;;;;;;;;;;5014456;28;20412;-87
2024/03/18 13:08:51;;;;;;;2.80;2.00;;;;;;;;;;5016093;28;20434;-85
2024/03/18 13:11:17;;;;;;;3.67;1.20;;;;;;;;;;5015591;28;20416;-79
2024/03/18 13:13:43;;;;;;;2.90;1.00;;;;;;;;;;5014516;28;20509;-90
2024/03/18 13:16:10;;;;;;;2.93;1.63;;;;;;;;;;5016028;28;20503;-82
2024/03/18 13:18:36;;;;;;;3.80;1.73;;;;;;;;;;5015661;28;20420;-83
2024/03/18 13:21:02;;;;;;;5.07;2.07;;;;;;;;;;5015646;28;20784;-89
2024/03/18 13:23:32;;;;;;;3.87;2.03;;;;;;;;;;5015367;28;20989;-88
2024/03/18 13:25:59;;;;;;;2.93;1.90;;;;;;;;;;5015461;28;20425;-90
2024/03/18 13:28:25;;;;;;;3.30;1.57;;;;;;;;;;5015736;28;20544;-88
2024/03/18 13:30:51;;;;;;;4.37;1.90;;;;;;;;;;5015624;28;20497;-91
2024/03/18 13:33:19;;;;;;;3.60;2.07;;;;;;;;;;5015884;28;20876;-84
2024/03/18 13:35:46;;;;;;;3.30;1.67;;;;;;;;;;5015690;28;20456;-91
2024/03/18 13:38:12;;;;;;;2.67;1.50;;;;;;;;;;5015871;28;20410;-86
2024/03/18 13:40:39;;;;;;;4.90;2.53;;;;;;;;;;5015496;28;20730;-85
2024/03/18 13:43:05;;;;;;;4.10;1.77;;;;;;;;;;5015041;28;20816;-89
2024/03/18 13:45:31;;;;;;;3.83;1.97;;;;;;;;;;5015543;28;20496;-87
2024/03/18 13:48:03;;;;;;;4.30;1.67;;;;;;;;;;5015638;28;20420;-89
2024/03/18 13:50:29;;;;;;;3.57;2.60;;;;;;;;;;5015422;28;20750;-83
2024/03/18 13:52:55;;;;;;;3.70;1.77;;;;;;;;;;5014969;28;20417;-89
2024/03/18 13:55:23;;;;;;;3.13;1.90;;;;;;;;;;5015223;28;20403;-88
2024/03/18 13:57:49;;;;;;;4.07;1.90;;;;;;;;;;5014987;28;20422;-89
2024/03/18 14:00:21;;;;;;;2.70;2.10;;;;;;;;;;5014813;28;20899;-83
2024/03/18 14:02:47;;;;;;;2.80;1.77;;;;;;;;;;5015928;28;20564;-88
2024/03/18 14:05:14;;;;;;;3.30;1.13;;;;;;;;;;5023777;28;20421;-82
2024/03/18 14:07:40;;;;;;;2.90;2.40;;;;;;;;;;5014965;28;20422;-84
2024/03/18 14:10:07;;;;;;;4.60;1.83;;;;;;;;;;5014289;28;20608;-79
2024/03/18 14:12:33;;;;;;;2.90;1.83;;;;;;;;;;5013811;28;20421;-79
2024/03/18 14:15:00;;;;;;;3.47;1.03;;;;;;;;;;5014551;28;20419;-80
2024/03/18 14:17:26;;;;;;;3.57;2.27;;;;;;;;;;5014575;28;20454;-78
2024/03/18 14:19:52;;;;;;;4.37;2.30;;;;;;;;;;5015585;28;20894;-87
2024/03/18 14:22:18;;;;;;;7.23;2.20;;;;;;;;;;5014111;28;20534;-87
2024/03/18 14:24:47;;;;;;;4.87;1.83;;;;;;;;;;5014090;28;20423;-79
2024/03/18 14:27:13;;;;;;;5.63;1.50;;;;;;;;;;5013658;28;20954;-80
2024/03/18 14:29:39;;;;;;;3.77;1.87;;;;;;;;;;5013812;28;20410;-81
2024/03/18 14:32:05;;;;;;;3.27;1.30;;;;;;;;;;5013799;28;20416;-80
2024/03/18 14:34:31;;;;;;;4.10;1.67;;;;;;;;;;5012457;28;20447;-78
2024/03/18 14:36:59;;;;;;;4.93;1.53;;;;;;;;;;5012492;28;20428;-79
2024/03/18 14:39:25;;;;;;;3.07;1.43;;;;;;;;;;5013826;28;20407;-79
2024/03/18 14:41:51;;;;;;;3.63;1.60;;;;;;;;;;5013445;28;20564;-79
2024/03/18 14:44:17;;;;;;;6.93;2.30;;;;;;;;;;5013709;28;20513;-78
2024/03/18 14:46:43;;;;;;;3.03;1.83;;;;;;;;;;5013564;28;20903;-78